Time;durP1;ratioP1;P1;durP2;ratioP2;P2;SDS_P1;SDS_P2;PMS_P1;PMS_P2;Temp;Humidity;BMP_temperature;BMP_pressure;BME280_temperature;BME280_humidity;BME280_pressure;Samples;Min_cycle;Max_cycle;Signal;HPM_P1;HPM_P2
2023/09/01 00:00:59;;;;;;;1999.90;999.90;;;;;;;13.82;100.00;101119.91;10461905;28;20484;-63
2023/09/01 00:06:02;;;;;;;1999.90;999.90;;;;;;;13.94;100.00;101119.94;10444965;28;20048;-63
2023/09/01 00:11:05;;;;;;;1999.90;999.90;;;;;;;13.69;100.00;101104.09;10462276;28;20476;-63
2023/09/01 00:16:07;;;;;;;1999.90;999.90;;;;;;;13.61;100.00;101103.75;10462029;28;20049;-63
2023/09/01 00:21:10;;;;;;;1999.90;999.90;;;;;;;13.57;100.00;101106.56;10461909;28;20110;-62
2023/09/01 00:26:12;;;;;;;1999.90;999.90;;;;;;;13.56;100.00;101110.16;10460978;28;20049;-63
2023/09/01 00:31:17;;;;;;;1999.90;999.90;;;;;;;13.32;100.00;101093.34;10461571;28;20078;-63
2023/09/01 00:36:20;;;;;;;1999.90;999.90;;;;;;;13.27;100.00;101092.75;10460720;28;20048;-63
2023/09/01 00:41:22;;;;;;;1999.90;999.90;;;;;;;13.23;100.00;101093.88;10442878;28;20508;-63
2023/09/01 00:46:25;;;;;;;1999.90;999.90;;;;;;;13.33;100.00;101093.25;10460999;28;20079;-63
2023/09/01 00:51:28;;;;;;;1999.90;999.90;;;;;;;13.35;100.00;101087.88;10443170;28;20128;-63
2023/09/01 00:56:31;;;;;;;1999.90;999.90;;;;;;;13.40;100.00;101084.94;10459943;28;20514;-64
2023/09/01 01:01:34;;;;;;;1999.90;999.90;;;;;;;13.36;100.00;101089.56;10459453;28;20494;-63
2023/09/01 01:06:40;;;;;;;1999.90;999.90;;;;;;;13.23;100.00;101089.47;10459605;28;20098;-63
2023/09/01 01:12:07;;;;;;;1999.90;999.90;;;;;;;13.27;100.00;101095.38;10459377;28;20049;-63
2023/09/01 01:17:10;;;;;;;1999.90;999.90;;;;;;;13.31;100.00;101094.22;10459000;28;20495;-63
2023/09/01 01:22:12;;;;;;;1999.90;999.90;;;;;;;13.36;100.00;101089.56;10442081;28;20061;-63
2023/09/01 01:27:18;;;;;;;1999.90;999.90;;;;;;;13.34;100.00;101089.66;10441094;28;20045;-63
2023/09/01 01:32:20;;;;;;;1999.90;999.90;;;;;;;13.25;100.00;101079.72;10459173;28;20061;-63
2023/09/01 01:37:33;;;;;;;1999.90;999.90;;;;;;;13.38;100.00;101098.19;10441184;28;20055;-63
2023/09/01 01:42:36;;;;;;;1999.90;999.90;;;;;;;13.36;100.00;101092.19;10440617;28;20123;-62
2023/09/01 01:47:39;;;;;;;1999.90;999.90;;;;;;;13.23;100.00;101094.75;10440896;28;20045;-63
2023/09/01 01:52:41;;;;;;;1999.90;999.90;;;;;;;13.24;100.00;101111.34;10440065;28;20391;-63
2023/09/01 01:57:43;;;;;;;1999.90;999.90;;;;;;;13.22;100.00;101108.81;10458087;28;20041;-62
2023/09/01 02:02:46;;;;;;;1999.90;999.90;;;;;;;13.20;100.00;101115.97;10457403;28;20142;-63
2023/09/01 02:07:48;;;;;;;1999.90;999.90;;;;;;;13.28;100.00;101105.81;10457222;28;20449;-63
2023/09/01 02:12:51;;;;;;;1999.90;999.90;;;;;;;13.32;100.00;101101.22;10439335;28;20494;-63
2023/09/01 02:17:53;;;;;;;1999.90;999.90;;;;;;;13.17;100.00;101100.38;10457346;28;20110;-63
2023/09/01 02:22:55;;;;;;;1999.90;999.90;;;;;;;13.40;100.00;101105.97;10439741;28;20053;-64
2023/09/01 02:27:58;;;;;;;1999.90;999.90;;;;;;;13.42;100.00;101112.00;10456623;28;20128;-63
2023/09/01 02:33:01;;;;;;;1999.90;999.90;;;;;;;13.48;100.00;101107.19;10457046;28;20059;-64
2023/09/01 02:38:04;;;;;;;1999.90;999.90;;;;;;;13.60;100.00;101109.94;10456292;28;20409;-63
2023/09/01 02:43:06;;;;;;;1999.90;999.90;;;;;;;13.48;100.00;101115.09;10456813;28;20055;-63
2023/09/01 02:48:08;;;;;;;1999.90;999.90;;;;;;;13.51;100.00;101104.34;10438068;28;20044;-64
2023/09/01 02:53:11;;;;;;;1999.90;999.90;;;;;;;13.67;100.00;101106.00;10456642;28;20156;-64
2023/09/01 02:58:13;;;;;;;1999.90;999.90;;;;;;;13.57;100.00;101111.00;10456395;28;20056;-63
2023/09/01 03:03:16;;;;;;;1999.90;999.90;;;;;;;13.65;100.00;101113.13;10455570;28;20088;-63
2023/09/01 03:08:20;;;;;;;1999.90;999.90;;;;;;;13.60;100.00;101117.84;10455702;28;20053;-63
2023/09/01 03:13:23;;;;;;;1999.90;999.90;;;;;;;13.60;100.00;101108.19;10456198;28;20132;-63
2023/09/01 03:18:25;;;;;;;1999.90;999.90;;;;;;;13.62;100.00;101102.81;10456097;28;20127;-63
2023/09/01 03:23:28;;;;;;;1999.90;999.90;;;;;;;13.41;100.00;101113.78;10455386;28;20533;-63
2023/09/01 03:28:31;;;;;;;1999.90;999.90;;;;;;;13.32;100.00;101103.84;10437646;28;20053;-64
2023/09/01 03:33:34;;;;;;;1999.90;999.90;;;;;;;13.33;100.00;101100.25;10455811;28;20053;-63
2023/09/01 03:38:37;;;;;;;1999.90;999.90;;;;;;;13.51;100.00;101093.81;10455707;28;20077;-63
2023/09/01 03:43:40;;;;;;;1999.90;999.90;;;;;;;13.43;100.00;101093.50;10455613;28;20123;-63
2023/09/01 03:48:42;;;;;;;1999.90;999.90;;;;;;;13.76;100.00;101089.59;10455565;28;20059;-64
2023/09/01 03:53:44;;;;;;;1999.90;999.90;;;;;;;13.77;100.00;101075.50;10455419;28;20057;-63
2023/09/01 03:58:47;;;;;;;1999.90;999.90;;;;;;;13.87;100.00;101070.44;10455292;28;20049;-63
2023/09/01 04:03:49;;;;;;;1999.90;999.90;;;;;;;13.85;100.00;101061.81;10460788;28;20056;-64
2023/09/01 04:08:52;;;;;;;1999.90;999.90;;;;;;;13.78;100.00;101073.69;10461815;28;20051;-64
2023/09/01 04:13:55;;;;;;;1999.90;999.90;;;;;;;13.67;100.00;101066.53;10461663;28;20408;-64
2023/09/01 04:18:58;;;;;;;1999.90;999.90;;;;;;;13.70;100.00;101074.19;10461499;28;20568;-64
2023/09/01 04:24:00;;;;;;;1999.90;999.90;;;;;;;13.62;100.00;101072.09;10461308;28;20482;-63
2023/09/01 04:29:03;;;;;;;1999.90;999.90;;;;;;;13.65;100.00;101068.41;10461734;28;20132;-63
2023/09/01 04:34:05;;;;;;;1999.90;999.90;;;;;;;13.66;100.00;101072.72;10461469;28;20099;-64
2023/09/01 04:39:09;;;;;;;1999.90;999.90;;;;;;;13.57;100.00;101063.66;10461287;28;20056;-63
2023/09/01 04:44:13;;;;;;;1999.90;999.90;;;;;;;13.65;100.00;101058.72;10443737;28;20087;-64
2023/09/01 04:49:16;;;;;;;1999.90;999.90;;;;;;;13.78;100.00;101047.38;10460901;28;20049;-63
2023/09/01 04:54:18;;;;;;;1999.90;999.90;;;;;;;13.77;100.00;101057.06;10460652;28;20049;-63
2023/09/01 04:59:20;;;;;;;1999.90;999.90;;;;;;;13.73;100.00;101071.38;10460390;28;20064;-63
2023/09/01 05:04:23;;;;;;;1999.90;999.90;;;;;;;13.53;100.00;101076.16;10459720;28;20057;-63
2023/09/01 05:09:25;;;;;;;1999.90;999.90;;;;;;;13.73;100.00;101069.59;10459552;28;20570;-63
2023/09/01 05:14:28;;;;;;;1999.90;999.90;;;;;;;13.73;100.00;101074.00;10467135;22;20045;-64
2023/09/01 05:19:31;;;;;;;1999.90;999.90;;;;;;;13.89;100.00;101074.66;10459355;28;20147;-64
2023/09/01 05:24:33;;;;;;;1999.90;999.90;;;;;;;13.67;100.00;101066.53;10441936;28;20063;-64
2023/09/01 05:29:35;;;;;;;1999.90;999.90;;;;;;;13.93;100.00;101070.03;10458746;28;20128;-64
2023/09/01 05:34:37;;;;;;;1999.90;999.90;;;;;;;14.10;100.00;101084.69;10440829;28;20481;-64
2023/09/01 05:39:40;;;;;;;1999.90;999.90;;;;;;;14.17;100.00;101077.22;10459010;28;20045;-64
2023/09/01 05:44:43;;;;;;;1999.90;999.90;;;;;;;14.26;100.00;101072.19;10458160;28;20450;-64
2023/09/01 05:49:45;;;;;;;1999.90;999.90;;;;;;;14.18;100.00;101076.28;10458079;28;20400;-64
2023/09/01 05:54:48;;;;;;;1999.90;999.90;;;;;;;14.36;100.00;101085.56;10439965;28;20405;-64
2023/09/01 05:59:50;;;;;;;1999.90;999.90;;;;;;;14.45;100.00;101078.81;10439998;28;20409;-64
2023/09/01 06:04:52;;;;;;;1999.90;999.90;;;;;;;14.48;100.00;101079.44;10458045;28;20055;-64
2023/09/01 06:09:55;;;;;;;1999.90;999.90;;;;;;;14.54;100.00;101086.09;10457867;28;20051;-64
2023/09/01 06:14:57;;;;;;;1999.90;999.90;;;;;;;14.63;100.00;101082.00;10457320;28;20144;-64
2023/09/01 06:20:00;;;;;;;1999.90;999.90;;;;;;;14.27;100.00;101083.53;10457551;28;20083;-64
2023/09/01 06:25:03;;;;;;;1999.90;999.90;;;;;;;14.67;100.00;101084.28;10456108;28;20056;-64
2023/09/01 06:30:06;;;;;;;1999.90;999.90;;;;;;;14.74;100.00;101082.06;10457155;28;20049;-64
2023/09/01 06:35:09;;;;;;;1999.90;999.90;;;;;;;15.04;100.00;101078.22;10439366;28;20076;-64
2023/09/01 06:40:11;;;;;;;1999.90;999.90;;;;;;;15.39;100.00;101086.19;10456988;28;20044;-64
2023/09/01 06:45:14;;;;;;;1999.90;999.90;;;;;;;15.05;100.00;101088.66;10456775;28;20120;-67
2023/09/01 06:50:16;;;;;;;1999.90;999.90;;;;;;;15.07;100.00;101087.72;10456760;28;20048;-69
2023/09/01 06:55:18;;;;;;;1999.90;999.90;;;;;;;15.50;100.00;101085.44;10456599;28;20044;-68
2023/09/01 07:00:21;;;;;;;1999.90;999.90;;;;;;;15.40;100.00;101089.69;10456572;28;20049;-70
2023/09/01 07:05:23;;;;;;;1999.90;999.90;;;;;;;15.54;100.00;101093.97;10438763;28;20041;-74
2023/09/01 07:10:26;;;;;;;1999.90;999.90;;;;;;;15.77;100.00;101085.19;10438111;28;20070;-74
2023/09/01 07:15:28;;;;;;;1999.90;999.90;;;;;;;15.97;100.00;101081.06;10455805;28;20048;-69
2023/09/01 07:20:30;;;;;;;1999.90;999.90;;;;;;;16.14;100.00;101087.69;10455530;28;20045;-69
2023/09/01 07:25:33;;;;;;;1999.90;999.90;;;;;;;16.13;100.00;101078.09;10456090;28;20076;-70
2023/09/01 07:30:35;;;;;;;1999.90;999.90;;;;;;;16.14;100.00;101069.22;10455975;28;20091;-69
2023/09/01 07:35:38;;;;;;;1999.90;999.90;;;;;;;16.38;100.00;101060.34;10440603;28;20055;-70
2023/09/01 07:40:41;;;;;;;1999.90;999.90;;;;;;;16.58;100.00;101068.53;10463034;28;20504;-69
2023/09/01 07:45:43;;;;;;;1999.90;999.90;;;;;;;17.00;100.00;101068.78;10445131;28;20405;-69
2023/09/01 07:50:46;;;;;;;1999.90;999.90;;;;;;;16.89;100.00;101073.13;10462479;28;20108;-71
2023/09/01 07:55:49;;;;;;;1999.90;999.90;;;;;;;17.24;100.00;101060.63;10428946;28;20049;-69
2023/09/01 08:00:52;;;;;;;1999.90;999.90;;;;;;;16.78;100.00;101056.34;10462309;28;20504;-70
2023/09/01 08:05:55;;;;;;;1999.90;999.90;;;;;;;16.93;100.00;101049.91;10445059;28;20072;-67
2023/09/01 08:10:57;;;;;;;1999.90;999.90;;;;;;;16.90;100.00;101064.19;10461858;28;20456;-67
2023/09/01 08:16:00;;;;;;;1999.90;999.90;;;;;;;17.02;100.00;101061.53;10461827;28;20059;-67
2023/09/01 08:21:05;;;;;;;1999.90;999.90;;;;;;;17.14;100.00;101071.13;10444393;28;20060;-67
2023/09/01 08:26:08;;;;;;;1999.90;999.90;;;;;;;17.33;100.00;101062.56;10461267;28;20156;-68
2023/09/01 08:31:10;;;;;;;1999.90;999.90;;;;;;;16.86;100.00;101080.41;10460311;28;20049;-67
2023/09/01 08:36:12;;;;;;;1999.90;999.90;;;;;;;17.13;100.00;101092.41;10444588;28;20129;-67
2023/09/01 08:41:15;;;;;;;1999.90;999.90;;;;;;;17.20;100.00;101097.09;10461671;28;20048;-67
2023/09/01 08:46:20;;;;;;;1999.90;999.90;;;;;;;17.35;100.00;101092.38;10443754;28;20051;-67
2023/09/01 08:51:23;;;;;;;1999.90;999.90;;;;;;;17.36;100.00;101106.44;10444605;28;20199;-67
2023/09/01 08:56:25;;;;;;;1999.90;999.90;;;;;;;17.49;100.00;101101.00;10426584;28;20041;-65
2023/09/01 09:01:28;;;;;;;1999.90;999.90;;;;;;;17.35;100.00;101102.94;10443953;28;20048;-63
2023/09/01 09:06:35;;;;;;;1999.90;999.90;;;;;;;17.50;100.00;101106.16;10460792;28;20433;-64
2023/09/01 09:11:38;;;;;;;1999.90;999.90;;;;;;;17.09;100.00;101118.28;10460543;28;20068;-64
2023/09/01 09:16:54;;;;;;;1999.90;999.90;;;;;;;17.43;100.00;101105.81;10441530;28;20494;-64
2023/09/01 09:22:06;;;;;;;1999.90;999.90;;;;;;;17.29;100.00;101110.56;10442025;28;20056;-63
2023/09/01 09:27:15;;;;;;;1999.90;999.90;;;;;;;17.16;100.00;101103.56;10440952;28;20475;-64
2023/09/01 09:32:19;;;;;;;1999.90;999.90;;;;;;;17.30;100.00;101110.44;10441198;28;20486;-64
2023/09/01 09:37:21;;;;;;;1999.90;999.90;;;;;;;17.21;100.00;101116.44;10459325;28;20106;-64
2023/09/01 09:42:38;;;;;;;1999.90;999.90;;;;;;;17.20;100.00;101128.84;10440937;28;20053;-65
2023/09/01 09:47:40;;;;;;;1999.90;999.90;;;;;;;17.16;100.00;101131.84;10441289;28;20151;-65
2023/09/01 09:52:47;;;;;;;1999.90;999.90;;;;;;;17.24;100.00;101132.91;10424992;28;20148;-68
2023/09/01 09:57:50;;;;;;;1999.90;999.90;;;;;;;16.90;100.00;101137.41;10441011;28;20052;-68
2023/09/01 10:03:01;;;;;;;1999.90;999.90;;;;;;;17.03;100.00;101134.63;10458634;28;20397;-69
2023/09/01 10:08:05;;;;;;;1999.90;999.90;;;;;;;16.93;100.00;101139.81;10441390;28;20106;-68
2023/09/01 10:13:08;;;;;;;1999.90;999.90;;;;;;;17.10;100.00;101141.13;10439308;28;20045;-68
2023/09/01 10:18:11;;;;;;;1999.90;999.90;;;;;;;17.03;100.00;101139.91;10439427;28;20056;-68
2023/09/01 10:23:14;;;;;;;1999.90;999.90;;;;;;;17.40;100.00;101136.97;10457393;28;20052;-68
2023/09/01 10:28:18;;;;;;;1999.90;999.90;;;;;;;17.40;100.00;101134.31;10436314;28;20057;-68
2023/09/01 10:33:27;;;;;;;1999.90;999.90;;;;;;;17.36;100.00;101141.66;10440122;28;20140;-68
2023/09/01 10:38:38;;;;;;;1999.90;999.90;;;;;;;17.07;100.00;101139.56;10456349;28;20049;-68
2023/09/01 10:43:44;;;;;;;1999.90;999.90;;;;;;;16.75;100.00;101141.22;10419313;28;20478;-68
2023/09/01 10:48:58;;;;;;;1999.90;999.90;;;;;;;17.09;100.00;101134.16;10414893;28;20049;-68
2023/09/01 10:54:21;;;;;;;1999.90;999.90;;;;;;;17.18;100.00;101114.03;10415477;28;20049;-68
2023/09/01 10:59:34;;;;;;;1999.90;999.90;;;;;;;17.40;100.00;101129.88;10414580;28;20053;-68
2023/09/01 11:04:40;;;;;;;1999.90;999.90;;;;;;;17.70;100.00;101127.50;10414624;28;20402;-68
2023/09/01 11:09:42;;;;;;;1999.90;999.90;;;;;;;17.40;100.00;101129.03;10416208;28;20398;-69
2023/09/01 11:14:56;;;;;;;1999.90;999.90;;;;;;;17.75;100.00;101133.25;10423321;28;20045;-69
2023/09/01 11:19:58;;;;;;;1999.90;999.90;;;;;;;17.76;100.00;101127.00;10405745;28;20171;-68
2023/09/01 11:25:02;;;;;;;1999.90;999.90;;;;;;;17.61;100.00;101131.75;10423089;28;20060;-68
2023/09/01 11:30:05;;;;;;;1999.90;999.90;;;;;;;17.71;100.00;101134.47;10423884;28;20050;-68
2023/09/01 11:35:19;;;;;;;1999.90;999.90;;;;;;;18.10;100.00;101143.59;10405922;28;20084;-69
2023/09/01 11:40:24;;;;;;;1999.90;999.90;;;;;;;18.16;100.00;101137.78;10401990;28;20069;-69
2023/09/01 11:45:26;;;;;;;1999.90;999.90;;;;;;;18.12;100.00;101160.22;10417337;28;20513;-68
2023/09/01 11:50:29;;;;;;;1999.90;999.90;;;;;;;18.01;100.00;101158.44;10400797;28;20049;-68
2023/09/01 11:55:33;;;;;;;1999.90;999.90;;;;;;;17.78;100.00;101165.59;10422866;28;20046;-66
2023/09/01 12:00:38;;;;;;;1999.90;999.90;;;;;;;17.81;100.00;101160.06;10404921;28;20045;-66
2023/09/01 12:05:41;;;;;;;1999.90;999.90;;;;;;;18.19;100.00;101176.44;10422167;28;20104;-66
2023/09/01 12:10:43;;;;;;;1999.90;999.90;;;;;;;18.30;100.00;101176.38;10422451;28;20049;-68
2023/09/01 12:15:56;;;;;;;1999.90;999.90;;;;;;;18.19;100.00;101179.94;10371760;28;20054;-65
2023/09/01 12:20:59;;;;;;;1999.90;999.90;;;;;;;17.90;100.00;101178.84;10420121;28;20104;-66
2023/09/01 12:26:02;;;;;;;1999.90;999.90;;;;;;;18.05;100.00;101187.34;10402776;28;20050;-66
2023/09/01 12:31:06;;;;;;;1999.90;999.90;;;;;;;18.13;100.00;101187.56;10415921;28;20052;-67
2023/09/01 12:36:09;;;;;;;1999.90;999.90;;;;;;;18.61;100.00;101178.22;10444118;28;20045;-67
2023/09/01 12:41:11;;;;;;;1999.90;999.90;;;;;;;18.57;100.00;101180.31;10460148;28;20049;-66
2023/09/01 12:46:13;;;;;;;1999.90;999.90;;;;;;;19.10;100.00;101189.97;10461421;28;20049;-66
2023/09/01 12:51:16;;;;;;;1999.90;999.90;;;;;;;18.63;100.00;101197.53;10442652;28;20405;-66
2023/09/01 12:56:18;;;;;;;1999.90;999.90;;;;;;;18.32;100.00;101203.56;10460080;28;20436;-66
2023/09/01 13:01:21;;;;;;;1999.90;999.90;;;;;;;18.35;100.00;101216.56;10460636;28;20076;-66
2023/09/01 13:06:23;;;;;;;1999.90;999.90;;;;;;;18.69;100.00;101216.41;10460285;28;20123;-66
2023/09/01 13:11:25;;;;;;;1999.90;999.90;;;;;;;18.60;100.00;101219.81;10459496;28;20494;-66
2023/09/01 13:16:29;;;;;;;1999.90;999.90;;;;;;;18.70;100.00;101223.38;10458893;28;20409;-66
2023/09/01 13:21:32;;;;;;;1999.90;999.90;;;;;;;18.67;100.00;101220.16;10460384;28;20051;-66
2023/09/01 13:26:34;;;;;;;1999.90;999.90;;;;;;;18.93;100.00;101220.59;10459928;28;20071;-67
2023/09/01 13:31:36;;;;;;;1999.90;999.90;;;;;;;18.99;100.00;101222.72;10460201;28;20055;-67
2023/09/01 13:36:39;;;;;;;1999.90;999.90;;;;;;;18.62;100.00;101225.00;10442531;28;20052;-71
2023/09/01 13:41:41;;;;;;;1999.90;999.90;;;;;;;18.99;100.00;101233.31;10442711;28;20053;-73
2023/09/01 13:46:43;;;;;;;1999.90;999.90;;;;;;;18.87;100.00;101229.91;10425854;28;20045;-76
2023/09/01 13:51:46;;;;;;;1999.90;999.90;;;;;;;18.94;100.00;101225.75;10460208;28;20056;-77
2023/09/01 13:56:49;;;;;;;1999.90;999.90;;;;;;;19.56;100.00;101231.00;10459175;28;20049;-77
2023/09/01 14:01:52;;;;;;;1999.90;999.90;;;;;;;20.00;100.00;101236.00;10458634;28;20049;-76
2023/09/01 14:06:54;;;;;;;1999.90;999.90;;;;;;;19.70;100.00;101231.59;10440432;28;20498;-77
2023/09/01 14:11:56;;;;;;;1999.90;999.90;;;;;;;19.63;100.00;101234.78;10440833;28;20470;-76
2023/09/01 14:16:59;;;;;;;1999.90;999.90;;;;;;;19.35;100.00;101248.84;10454275;28;20139;-68
2023/09/01 14:22:02;;;;;;;1999.90;999.90;;;;;;;19.00;100.00;101242.97;10455101;28;20416;-67
2023/09/01 14:27:05;;;;;;;1999.90;999.90;;;;;;;18.92;100.00;101251.59;10457197;28;20053;-68
2023/09/01 14:32:10;;;;;;;1999.90;999.90;;;;;;;19.47;100.00;101253.09;10456431;28;20156;-67
2023/09/01 14:37:12;;;;;;;1999.90;999.90;;;;;;;19.57;100.00;101259.28;10456933;28;20076;-67
2023/09/01 14:42:14;;;;;;;1999.90;999.90;;;;;;;19.34;100.00;101258.63;10456305;28;20585;-68
2023/09/01 14:47:17;;;;;;;1999.90;999.90;;;;;;;19.38;100.00;101257.38;10439459;28;20041;-68
2023/09/01 14:52:19;;;;;;;1999.90;999.90;;;;;;;19.37;100.00;101270.81;10457384;28;20539;-68
2023/09/01 14:57:21;;;;;;;1999.90;999.90;;;;;;;19.57;100.00;101272.53;10456816;28;20049;-67
2023/09/01 15:02:24;;;;;;;1999.90;999.90;;;;;;;19.67;100.00;101275.22;10456591;28;20059;-67
2023/09/01 15:07:26;;;;;;;1999.90;999.90;;;;;;;20.23;100.00;101265.81;10456463;28;20051;-68
2023/09/01 15:12:29;;;;;;;1999.90;999.90;;;;;;;20.10;100.00;101262.59;10456446;28;20055;-68
2023/09/01 15:17:31;;;;;;;1999.90;999.90;;;;;;;20.96;99.44;101260.00;10455846;28;20056;-67
2023/09/01 15:22:33;;;;;;;1999.90;999.90;;;;;;;21.59;100.00;101262.03;10456230;28;20057;-68
2023/09/01 15:27:36;;;;;;;1999.90;999.90;;;;;;;22.48;89.18;101241.72;10456063;28;20045;-68
2023/09/01 15:32:38;;;;;;;1999.90;999.90;;;;;;;21.75;86.94;101244.53;10455452;28;20409;-68
2023/09/01 15:37:40;;;;;;;1999.90;999.90;;;;;;;23.52;86.40;101243.47;10438145;28;20048;-69
2023/09/01 15:42:43;;;;;;;1999.90;999.90;;;;;;;23.31;80.18;101251.09;10437622;28;20052;-69
2023/09/01 15:47:45;;;;;;;1999.90;999.90;;;;;;;23.73;77.79;101252.88;10455015;28;20124;-69
2023/09/01 15:52:48;;;;;;;1999.90;999.90;;;;;;;23.47;80.66;101258.31;10454996;28;20536;-69
2023/09/01 15:57:50;;;;;;;1999.90;999.90;;;;;;;24.07;74.83;101255.50;10460247;28;20076;-69
2023/09/01 16:02:54;;;;;;;1999.90;999.90;;;;;;;23.80;76.02;101255.75;10462275;28;20055;-69
2023/09/01 16:07:57;;;;;;;1999.90;999.90;;;;;;;23.34;75.17;101256.09;10462707;28;20120;-69
2023/09/01 16:12:59;;;;;;;1999.90;999.90;;;;;;;23.48;75.69;101251.97;10461943;28;20604;-69
2023/09/01 16:18:02;;;;;;;1999.90;999.90;;;;;;;22.46;79.19;101249.06;10461836;28;20059;-69
2023/09/01 16:23:04;;;;;;;1999.90;999.90;;;;;;;21.77;84.79;101261.19;10462166;28;20053;-69
2023/09/01 16:28:07;;;;;;;1999.90;999.90;;;;;;;22.17;82.22;101263.44;10444513;28;20096;-67
2023/09/01 16:33:09;;;;;;;1999.90;999.90;;;;;;;21.95;83.55;101262.06;10461831;28;20064;-67
2023/09/01 16:38:11;;;;;;;1999.90;999.90;;;;;;;21.40;86.42;101272.72;10443184;28;20057;-68
2023/09/01 16:43:13;;;;;;;1999.90;999.90;;;;;;;21.34;87.67;101269.66;10443077;28;20493;-68
2023/09/01 16:48:16;;;;;;;1999.90;999.90;;;;;;;21.26;89.33;101263.41;10443890;28;20049;-67
2023/09/01 16:53:19;;;;;;;1999.90;999.90;;;;;;;20.62;91.12;101263.13;10426546;28;20449;-67
2023/09/01 16:58:25;;;;;;;1999.90;999.90;;;;;;;20.38;95.05;101264.41;10443108;28;20057;-67
2023/09/01 17:03:28;;;;;;;1999.90;999.90;;;;;;;20.46;94.73;101266.38;10460784;28;20124;-68
2023/09/01 17:08:30;;;;;;;1999.90;999.90;;;;;;;20.26;96.05;101276.19;10459858;28;20049;-68
2023/09/01 17:13:32;;;;;;;1999.90;999.90;;;;;;;19.87;100.00;101281.47;10460213;28;20083;-67
2023/09/01 17:18:35;;;;;;;1999.90;999.90;;;;;;;19.71;100.00;101299.72;10459085;28;20052;-68
2023/09/01 17:23:38;;;;;;;1999.90;999.90;;;;;;;19.66;100.00;101292.13;10459164;28;20051;-67
2023/09/01 17:28:40;;;;;;;1999.90;999.90;;;;;;;19.24;100.00;101295.75;10459300;28;20045;-69
2023/09/01 17:33:42;;;;;;;1999.90;999.90;;;;;;;19.17;100.00;101301.72;10465908;22;20048;-73
2023/09/01 17:38:45;;;;;;;1999.90;999.90;;;;;;;18.93;100.00;101305.50;10458591;28;20485;-73
2023/09/01 17:43:48;;;;;;;1999.90;999.90;;;;;;;19.07;100.00;101305.16;10459031;28;20052;-73
2023/09/01 17:48:50;;;;;;;1999.90;999.90;;;;;;;18.87;100.00;101319.28;10458875;28;20128;-73
2023/09/01 17:53:54;;;;;;;1999.90;999.90;;;;;;;18.79;100.00;101325.19;10457960;28;20404;-73
2023/09/01 17:58:57;;;;;;;1999.90;999.90;;;;;;;18.88;100.00;101324.47;10440914;28;20147;-73
2023/09/01 18:03:59;;;;;;;1999.90;999.90;;;;;;;18.66;100.00;101345.75;10457639;28;20433;-73
2023/09/01 18:09:03;;;;;;;1999.90;999.90;;;;;;;18.62;100.00;101352.28;10458070;28;20055;-73
2023/09/01 18:14:05;;;;;;;1999.90;999.90;;;;;;;18.55;100.00;101357.25;10457916;28;20128;-73
2023/09/01 18:19:07;;;;;;;1999.90;999.90;;;;;;;18.47;100.00;101365.00;10438574;28;20066;-73
2023/09/01 18:24:20;;;;;;;1999.90;999.90;;;;;;;18.44;100.00;101371.41;10457539;28;20049;-73
2023/09/01 18:29:24;;;;;;;1999.90;999.90;;;;;;;18.27;100.00;101380.69;10439783;28;20049;-72
2023/09/01 18:34:26;;;;;;;1999.90;999.90;;;;;;;18.46;100.00;101395.09;10439194;28;20492;-73
2023/09/01 18:39:28;;;;;;;1999.90;999.90;;;;;;;18.40;100.00;101398.28;10438741;28;20067;-73
2023/09/01 18:44:31;;;;;;;1999.90;999.90;;;;;;;18.36;100.00;101397.69;10438697;28;20128;-73
2023/09/01 18:49:34;;;;;;;1999.90;999.90;;;;;;;18.16;100.00;101396.66;10439284;28;20053;-73
2023/09/01 18:54:36;;;;;;;1999.90;999.90;;;;;;;18.11;100.00;101406.78;10456789;28;20052;-73
2023/09/01 18:59:39;;;;;;;1999.90;999.90;;;;;;;18.18;100.00;101411.44;10456561;28;20139;-72
2023/09/01 19:04:42;;;;;;;1999.90;999.90;;;;;;;18.08;100.00;101418.44;10456585;28;20045;-72
2023/09/01 19:09:45;;;;;;;1999.90;999.90;;;;;;;18.06;100.00;101425.69;10438882;28;20051;-72
2023/09/01 19:14:47;;;;;;;1999.90;999.90;;;;;;;17.96;100.00;101435.31;10455755;28;20565;-72
2023/09/01 19:19:49;;;;;;;1999.90;999.90;;;;;;;18.03;100.00;101440.97;10455456;28;20067;-74
2023/09/01 19:24:52;;;;;;;1999.90;999.90;;;;;;;17.89;100.00;101453.50;10456856;28;20073;-71
2023/09/01 19:29:54;;;;;;;1999.90;999.90;;;;;;;17.73;100.00;101464.38;10456509;28;20060;-70
2023/09/01 19:34:57;;;;;;;1999.90;999.90;;;;;;;17.69;100.00;101464.75;10463555;28;20183;-70
2023/09/01 19:40:00;;;;;;;1999.90;999.90;;;;;;;17.70;100.00;101462.00;10446344;28;20041;-70
2023/09/01 19:45:08;;;;;;;1999.90;999.90;;;;;;;17.36;100.00;101461.91;10463750;28;20075;-70
2023/09/01 19:50:10;;;;;;;1999.90;999.90;;;;;;;17.39;100.00;101472.25;10446047;28;20045;-70
2023/09/01 19:55:13;;;;;;;1999.90;999.90;;;;;;;17.17;100.00;101478.34;10445804;28;20131;-70
2023/09/01 20:00:23;;;;;;;1999.90;999.90;;;;;;;17.24;100.00;101486.66;10463110;28;20133;-70
2023/09/01 20:05:26;;;;;;;1999.90;999.90;;;;;;;17.20;100.00;101482.56;10445189;28;20057;-70
2023/09/01 20:10:36;;;;;;;1999.90;999.90;;;;;;;17.45;100.00;101485.06;10445098;28;20072;-70
2023/09/01 20:15:39;;;;;;;1999.90;999.90;;;;;;;17.24;100.00;101491.94;10444917;28;20048;-70
2023/09/01 20:20:42;;;;;;;1999.90;999.90;;;;;;;17.02;100.00;101493.53;10462377;28;20041;-70
2023/09/01 20:25:46;;;;;;;1999.90;999.90;;;;;;;17.11;100.00;101501.75;10444837;28;20048;-70
2023/09/01 20:30:48;;;;;;;1999.90;999.90;;;;;;;17.34;100.00;101511.47;10461650;28;20064;-71
2023/09/01 20:35:50;;;;;;;1999.90;999.90;;;;;;;17.49;100.00;101521.88;10461181;28;20466;-70
2023/09/01 20:40:53;;;;;;;1999.90;999.90;;;;;;;17.31;100.00;101501.09;10461536;28;20132;-71
2023/09/01 20:45:55;;;;;;;1999.90;999.90;;;;;;;17.29;100.00;101524.19;10460460;28;20049;-70
2023/09/01 20:50:58;;;;;;;1999.90;999.90;;;;;;;17.33;100.00;101530.09;10460568;28;20449;-70
2023/09/01 20:56:02;;;;;;;1999.90;999.90;;;;;;;17.66;100.00;101526.72;10442732;28;20489;-71
2023/09/01 21:01:05;;;;;;;1999.90;999.90;;;;;;;17.02;100.00;101551.72;10460594;28;20130;-70
2023/09/01 21:06:07;;;;;;;1999.90;999.90;;;;;;;17.18;100.00;101550.59;10460516;28;20061;-70
2023/09/01 21:11:12;;;;;;;1999.90;999.90;;;;;;;17.27;100.00;101542.84;10459797;28;20095;-71
2023/09/01 21:16:14;;;;;;;1999.90;999.90;;;;;;;17.14;100.00;101554.44;10460240;28;20056;-73
2023/09/01 21:21:16;;;;;;;1999.90;999.90;;;;;;;17.25;100.00;101554.50;10460095;28;20060;-72
2023/09/01 21:26:19;;;;;;;1999.90;999.90;;;;;;;17.35;100.00;101552.88;10459227;28;20508;-72
2023/09/01 21:31:21;;;;;;;1999.90;999.90;;;;;;;17.35;100.00;101576.69;10458817;28;20388;-72
2023/09/01 21:36:24;;;;;;;1999.90;999.90;;;;;;;17.37;100.00;101566.81;10459425;28;20049;-71
2023/09/01 21:41:26;;;;;;;1999.90;999.90;;;;;;;17.40;100.00;101565.75;10459141;28;20086;-71